sensor_id;sensor_type;location;lat;lon;timestamp;pressure;altitude;pressure_sealevel;temperature;humidity
7834;BME280;3962;42.696;23.354;2022-11-21T00:01:39;93951.22;;;11.15;100.00
7834;BME280;3962;42.696;23.354;2022-11-21T00:04:08;93941.41;;;11.30;100.00
7834;BME280;3962;42.696;23.354;2022-11-21T00:06:46;93940.19;;;11.32;100.00
7834;BME280;3962;42.696;23.354;2022-11-21T00:09:15;93934.97;;;11.39;100.00
7834;BME280;3962;42.696;23.354;2022-11-21T00:11:43;93923.75;;;11.43;100.00
7834;BME280;3962;42.696;23.354;2022-11-21T00:14:18;93916.31;;;11.39;100.00
7834;BME280;3962;42.696;23.354;2022-11-21T00:16:49;93909.91;;;11.33;100.00
7834;BME280;3962;42.696;23.354;2022-11-21T00:19:16;93897.22;;;11.35;100.00
7834;BME280;3962;42.696;23.354;2022-11-21T00:21:48;93888.50;;;11.41;100.00
7834;BME280;3962;42.696;23.354;2022-11-21T00:24:16;93896.00;;;11.52;100.00
7834;BME280;3962;42.696;23.354;2022-11-21T00:26:44;93886.09;;;11.61;100.00
7834;BME280;3962;42.696;23.354;2022-11-21T00:29:11;93876.78;;;11.71;100.00
7834;BME280;3962;42.696;23.354;2022-11-21T00:31:42;93875.03;;;11.78;100.00
7834;BME280;3962;42.696;23.354;2022-11-21T00:34:09;93881.47;;;11.84;100.00
7834;BME280;3962;42.696;23.354;2022-11-21T00:36:38;93878.97;;;11.82;100.00
7834;BME280;3962;42.696;23.354;2022-11-21T00:39:05;93872.44;;;11.85;100.00
7834;BME280;3962;42.696;23.354;2022-11-21T00:41:33;93885.31;;;11.81;100.00
7834;BME280;3962;42.696;23.354;2022-11-21T00:44:08;93863.09;;;11.74;100.00
7834;BME280;3962;42.696;23.354;2022-11-21T00:46:34;93857.06;;;11.51;100.00
7834;BME280;3962;42.696;23.354;2022-11-21T00:49:07;93874.34;;;11.41;100.00
7834;BME280;3962;42.696;23.354;2022-11-21T00:51:43;93893.94;;;11.33;100.00
7834;BME280;3962;42.696;23.354;2022-11-21T00:54:22;93881.25;;;11.35;100.00
7834;BME280;3962;42.696;23.354;2022-11-21T00:56:53;93860.59;;;11.23;100.00
7834;BME280;3962;42.696;23.354;2022-11-21T00:59:40;93862.81;;;11.19;100.00
7834;BME280;3962;42.696;23.354;2022-11-21T01:02:25;93852.25;;;11.11;100.00
7834;BME280;3962;42.696;23.354;2022-11-21T01:04:54;93844.00;;;10.92;100.00
7834;BME280;3962;42.696;23.354;2022-11-21T01:07:22;93838.50;;;10.93;100.00
7834;BME280;3962;42.696;23.354;2022-11-21T01:09:50;93845.66;;;10.93;100.00
7834;BME280;3962;42.696;23.354;2022-11-21T01:12:17;93833.19;;;10.93;100.00
7834;BME280;3962;42.696;23.354;2022-11-21T01:15:00;93835.19;;;10.91;100.00
7834;BME280;3962;42.696;23.354;2022-11-21T01:17:27;93827.66;;;10.95;100.00
7834;BME280;3962;42.696;23.354;2022-11-21T01:20:00;93813.44;;;10.88;100.00
7834;BME280;3962;42.696;23.354;2022-11-21T01:26:00;93861.03;;;10.69;100.00
7834;BME280;3962;42.696;23.354;2022-11-21T01:28:30;93864.53;;;10.55;100.00
7834;BME280;3962;42.696;23.354;2022-11-21T01:31:12;93830.94;;;10.54;100.00
7834;BME280;3962;42.696;23.354;2022-11-21T01:33:40;93836.38;;;10.60;100.00
7834;BME280;3962;42.696;23.354;2022-11-21T01:36:11;93840.06;;;10.59;100.00
7834;BME280;3962;42.696;23.354;2022-11-21T01:38:44;93844.00;;;10.63;100.00
7834;BME280;3962;42.696;23.354;2022-11-21T01:41:19;93844.81;;;10.64;100.00
7834;BME280;3962;42.696;23.354;2022-11-21T01:43:53;93822.44;;;10.73;100.00
7834;BME280;3962;42.696;23.354;2022-11-21T01:46:21;93828.69;;;10.80;100.00
7834;BME280;3962;42.696;23.354;2022-11-21T01:48:58;93842.25;;;10.84;100.00
7834;BME280;3962;42.696;23.354;2022-11-21T01:52:02;93829.31;;;10.82;100.00
7834;BME280;3962;42.696;23.354;2022-11-21T01:54:32;93829.06;;;10.91;100.00
7834;BME280;3962;42.696;23.354;2022-11-21T01:57:08;93819.50;;;10.96;100.00
7834;BME280;3962;42.696;23.354;2022-11-21T01:59:41;93810.69;;;10.96;100.00
7834;BME280;3962;42.696;23.354;2022-11-21T02:02:20;93820.69;;;10.94;100.00
7834;BME280;3962;42.696;23.354;2022-11-21T02:04:50;93834.00;;;10.94;100.00
7834;BME280;3962;42.696;23.354;2022-11-21T02:07:23;93821.44;;;10.88;100.00
7834;BME280;3962;42.696;23.354;2022-11-21T02:09:53;93829.22;;;10.89;100.00
7834;BME280;3962;42.696;23.354;2022-11-21T02:12:28;93832.34;;;10.93;100.00
7834;BME280;3962;42.696;23.354;2022-11-21T02:14:58;93846.13;;;10.96;100.00
7834;BME280;3962;42.696;23.354;2022-11-21T02:17:28;93858.41;;;10.97;100.00
7834;BME280;3962;42.696;23.354;2022-11-21T02:19:58;93847.59;;;10.99;100.00
7834;BME280;3962;42.696;23.354;2022-11-21T02:22:35;93822.53;;;11.08;100.00
7834;BME280;3962;42.696;23.354;2022-11-21T02:25:13;93844.00;;;11.21;100.00
7834;BME280;3962;42.696;23.354;2022-11-21T02:27:41;93852.31;;;11.32;100.00
7834;BME280;3962;42.696;23.354;2022-11-21T02:30:13;93836.16;;;11.34;100.00
7834;BME280;3962;42.696;23.354;2022-11-21T02:32:42;93839.00;;;11.32;100.00
7834;BME280;3962;42.696;23.354;2022-11-21T02:35:11;93851.94;;;11.35;100.00
7834;BME280;3962;42.696;23.354;2022-11-21T02:37:39;93837.25;;;11.39;100.00
7834;BME280;3962;42.696;23.354;2022-11-21T02:40:14;93816.25;;;11.30;100.00
7834;BME280;3962;42.696;23.354;2022-11-21T02:42:48;93829.81;;;11.35;100.00
7834;BME280;3962;42.696;23.354;2022-11-21T02:45:25;93823.84;;;11.33;100.00
7834;BME280;3962;42.696;23.354;2022-11-21T02:47:57;93827.91;;;11.14;100.00
7834;BME280;3962;42.696;23.354;2022-11-21T02:50:27;93791.56;;;11.21;100.00
7834;BME280;3962;42.696;23.354;2022-11-21T02:52:56;93782.66;;;11.14;100.00
7834;BME280;3962;42.696;23.354;2022-11-21T02:55:25;93798.63;;;11.14;100.00
7834;BME280;3962;42.696;23.354;2022-11-21T02:57:57;93796.16;;;11.13;100.00
7834;BME280;3962;42.696;23.354;2022-11-21T03:00:27;93778.19;;;11.15;100.00
7834;BME280;3962;42.696;23.354;2022-11-21T03:03:11;93740.97;;;11.21;100.00
7834;BME280;3962;42.696;23.354;2022-11-21T03:05:40;93754.19;;;11.29;100.00
7834;BME280;3962;42.696;23.354;2022-11-21T03:08:16;93773.31;;;11.39;100.00
7834;BME280;3962;42.696;23.354;2022-11-21T03:10:48;93769.22;;;11.37;100.00
7834;BME280;3962;42.696;23.354;2022-11-21T03:13:17;93753.03;;;11.38;100.00
7834;BME280;3962;42.696;23.354;2022-11-21T03:15:43;93770.31;;;11.42;100.00
7834;BME280;3962;42.696;23.354;2022-11-21T03:18:14;93772.56;;;11.45;100.00
7834;BME280;3962;42.696;23.354;2022-11-21T03:20:42;93767.44;;;11.58;100.00
7834;BME280;3962;42.696;23.354;2022-11-21T03:23:11;93770.34;;;11.63;100.00
7834;BME280;3962;42.696;23.354;2022-11-21T03:25:38;93774.16;;;11.75;100.00
7834;BME280;3962;42.696;23.354;2022-11-21T03:28:08;93772.75;;;11.79;99.77
7834;BME280;3962;42.696;23.354;2022-11-21T03:34:04;93785.13;;;11.87;100.00
7834;BME280;3962;42.696;23.354;2022-11-21T03:36:33;93789.31;;;11.75;100.00
7834;BME280;3962;42.696;23.354;2022-11-21T03:39:00;93777.84;;;11.74;100.00
7834;BME280;3962;42.696;23.354;2022-11-21T03:41:33;93791.22;;;11.81;100.00
7834;BME280;3962;42.696;23.354;2022-11-21T03:44:14;93767.81;;;11.97;100.00
7834;BME280;3962;42.696;23.354;2022-11-21T03:46:43;93756.22;;;11.84;98.83
7834;BME280;3962;42.696;23.354;2022-11-21T03:49:11;93777.25;;;11.79;99.01
7834;BME280;3962;42.696;23.354;2022-11-21T03:51:39;93782.78;;;11.77;100.00
7834;BME280;3962;42.696;23.354;2022-11-21T03:54:06;93780.28;;;11.76;100.00
7834;BME280;3962;42.696;23.354;2022-11-21T03:56:33;93781.56;;;11.80;100.00
7834;BME280;3962;42.696;23.354;2022-11-21T03:59:13;93788.69;;;11.94;99.89
7834;BME280;3962;42.696;23.354;2022-11-21T04:01:40;93777.94;;;12.08;98.28
7834;BME280;3962;42.696;23.354;2022-11-21T04:04:07;93751.13;;;12.16;95.15
7834;BME280;3962;42.696;23.354;2022-11-21T04:06:46;93736.44;;;12.27;93.85
7834;BME280;3962;42.696;23.354;2022-11-21T04:09:18;93743.09;;;12.37;92.00
7834;BME280;3962;42.696;23.354;2022-11-21T04:12:11;93749.66;;;12.41;92.17
7834;BME280;3962;42.696;23.354;2022-11-21T04:14:41;93751.69;;;12.33;93.76
7834;BME280;3962;42.696;23.354;2022-11-21T04:17:08;93757.19;;;12.31;95.05
7834;BME280;3962;42.696;23.354;2022-11-21T04:19:37;93748.56;;;12.29;95.47
7834;BME280;3962;42.696;23.354;2022-11-21T04:22:08;93745.69;;;12.31;95.96
7834;BME280;3962;42.696;23.354;2022-11-21T04:24:38;93751.47;;;12.34;96.10
7834;BME280;3962;42.696;23.354;2022-11-21T04:27:05;93751.03;;;12.31;96.06
7834;BME280;3962;42.696;23.354;2022-11-21T04:29:34;93761.06;;;12.29;96.36
7834;BME280;3962;42.696;23.354;2022-11-21T04:32:14;93768.88;;;12.30;96.13
7834;BME280;3962;42.696;23.354;2022-11-21T04:34:45;93748.00;;;12.34;94.63
7834;BME280;3962;42.696;23.354;2022-11-21T04:37:22;93769.28;;;12.27;92.86
7834;BME280;3962;42.696;23.354;2022-11-21T04:40:05;93794.38;;;12.12;93.93
7834;BME280;3962;42.696;23.354;2022-11-21T04:42:36;93786.06;;;12.00;95.22
7834;BME280;3962;42.696;23.354;2022-11-21T04:45:08;93777.59;;;11.55;95.90
7834;BME280;3962;42.696;23.354;2022-11-21T04:47:36;93790.88;;;11.34;97.45
7834;BME280;3962;42.696;23.354;2022-11-21T04:50:05;93812.59;;;11.16;98.71
7834;BME280;3962;42.696;23.354;2022-11-21T04:52:48;93815.91;;;11.18;97.89
7834;BME280;3962;42.696;23.354;2022-11-21T04:55:26;93798.31;;;10.88;97.95
7834;BME280;3962;42.696;23.354;2022-11-21T04:58:12;93786.66;;;10.61;99.50
7834;BME280;3962;42.696;23.354;2022-11-21T05:00:40;93795.09;;;10.50;100.00
7834;BME280;3962;42.696;23.354;2022-11-21T05:03:08;93803.16;;;10.42;100.00
7834;BME280;3962;42.696;23.354;2022-11-21T05:05:35;93816.94;;;10.45;100.00
7834;BME280;3962;42.696;23.354;2022-11-21T05:08:02;93821.31;;;10.38;100.00
7834;BME280;3962;42.696;23.354;2022-11-21T05:10:29;93814.44;;;10.44;99.85
7834;BME280;3962;42.696;23.354;2022-11-21T05:13:16;93815.25;;;10.30;99.52
7834;BME280;3962;42.696;23.354;2022-11-21T05:15:45;93827.56;;;10.60;100.00
7834;BME280;3962;42.696;23.354;2022-11-21T05:18:17;93825.91;;;11.52;100.00
7834;BME280;3962;42.696;23.354;2022-11-21T05:20:44;93805.50;;;11.23;99.25
7834;BME280;3962;42.696;23.354;2022-11-21T05:23:11;93812.97;;;11.13;96.52
7834;BME280;3962;42.696;23.354;2022-11-21T05:25:38;93822.63;;;10.57;96.92
7834;BME280;3962;42.696;23.354;2022-11-21T05:28:05;93824.13;;;10.22;98.16
7834;BME280;3962;42.696;23.354;2022-11-21T05:30:31;93830.88;;;10.10;98.78
7834;BME280;3962;42.696;23.354;2022-11-21T05:32:58;93826.97;;;9.98;98.72
7834;BME280;3962;42.696;23.354;2022-11-21T05:35:26;93832.34;;;9.90;98.41
7834;BME280;3962;42.696;23.354;2022-11-21T05:37:56;93837.69;;;9.68;98.16
7834;BME280;3962;42.696;23.354;2022-11-21T05:40:23;93850.41;;;9.72;98.07
7834;BME280;3962;42.696;23.354;2022-11-21T05:42:51;93850.22;;;9.74;98.21
7834;BME280;3962;42.696;23.354;2022-11-21T05:45:34;93843.63;;;9.70;97.47
7834;BME280;3962;42.696;23.354;2022-11-21T05:48:01;93850.41;;;9.72;97.09
7834;BME280;3962;42.696;23.354;2022-11-21T05:50:33;93853.50;;;9.31;97.12
7834;BME280;3962;42.696;23.354;2022-11-21T05:53:02;93870.09;;;9.25;96.76
7834;BME280;3962;42.696;23.354;2022-11-21T05:55:29;93882.13;;;9.13;96.75
7834;BME280;3962;42.696;23.354;2022-11-21T05:57:57;93874.72;;;8.92;96.54
7834;BME280;3962;42.696;23.354;2022-11-21T06:00:25;93876.44;;;8.77;97.76
7834;BME280;3962;42.696;23.354;2022-11-21T06:02:52;93901.63;;;8.81;96.68
7834;BME280;3962;42.696;23.354;2022-11-21T06:05:37;93902.63;;;8.72;97.42
7834;BME280;3962;42.696;23.354;2022-11-21T06:08:04;93918.03;;;8.77;97.05
7834;BME280;3962;42.696;23.354;2022-11-21T06:10:31;93892.06;;;8.56;96.74
7834;BME280;3962;42.696;23.354;2022-11-21T06:12:59;93902.66;;;8.64;97.06
7834;BME280;3962;42.696;23.354;2022-11-21T06:15:26;93932.31;;;8.60;96.50
7834;BME280;3962;42.696;23.354;2022-11-21T06:17:53;93914.28;;;8.47;96.15
7834;BME280;3962;42.696;23.354;2022-11-21T06:20:20;93946.41;;;8.44;96.90
7834;BME280;3962;42.696;23.354;2022-11-21T06:22:48;93932.34;;;8.44;96.42
7834;BME280;3962;42.696;23.354;2022-11-21T06:25:15;93941.31;;;8.19;96.25
7834;BME280;3962;42.696;23.354;2022-11-21T06:27:42;93960.97;;;8.08;96.79
7834;BME280;3962;42.696;23.354;2022-11-21T06:30:09;93971.38;;;8.10;96.93
7834;BME280;3962;42.696;23.354;2022-11-21T06:32:36;93952.66;;;7.87;97.14
7834;BME280;3962;42.696;23.354;2022-11-21T06:35:06;93965.38;;;7.84;96.52
7834;BME280;3962;42.696;23.354;2022-11-21T06:37:34;93968.16;;;7.66;96.96
7834;BME280;3962;42.696;23.354;2022-11-21T06:40:03;93976.47;;;7.79;97.05
7834;BME280;3962;42.696;23.354;2022-11-21T06:42:31;93973.31;;;7.76;97.28
7834;BME280;3962;42.696;23.354;2022-11-21T06:44:58;93989.31;;;7.66;97.31
7834;BME280;3962;42.696;23.354;2022-11-21T06:47:24;93986.44;;;7.44;98.58
7834;BME280;3962;42.696;23.354;2022-11-21T06:49:51;93998.38;;;7.48;99.62
7834;BME280;3962;42.696;23.354;2022-11-21T06:52:18;93990.38;;;7.32;99.92
7834;BME280;3962;42.696;23.354;2022-11-21T06:54:45;94003.75;;;7.30;100.00
7834;BME280;3962;42.696;23.354;2022-11-21T06:57:13;94021.25;;;7.23;99.98
7834;BME280;3962;42.696;23.354;2022-11-21T06:59:40;94032.97;;;7.21;100.00
7834;BME280;3962;42.696;23.354;2022-11-21T07:02:10;94041.91;;;7.20;99.70
7834;BME280;3962;42.696;23.354;2022-11-21T07:04:37;94037.31;;;6.97;100.00
7834;BME280;3962;42.696;23.354;2022-11-21T07:07:04;94064.25;;;7.00;100.00
7834;BME280;3962;42.696;23.354;2022-11-21T07:09:31;94063.22;;;6.93;99.98
7834;BME280;3962;42.696;23.354;2022-11-21T07:12:00;94068.59;;;6.84;99.98
7834;BME280;3962;42.696;23.354;2022-11-21T07:14:48;94070.59;;;6.82;100.00
7834;BME280;3962;42.696;23.354;2022-11-21T07:17:14;94086.78;;;6.87;100.00
7834;BME280;3962;42.696;23.354;2022-11-21T07:19:41;94095.38;;;6.81;100.00
7834;BME280;3962;42.696;23.354;2022-11-21T07:22:08;94103.44;;;6.79;100.00
7834;BME280;3962;42.696;23.354;2022-11-21T07:24:35;94127.53;;;6.59;100.00
7834;BME280;3962;42.696;23.354;2022-11-21T07:27:01;94124.19;;;6.57;100.00
7834;BME280;3962;42.696;23.354;2022-11-21T07:29:28;94131.16;;;6.58;100.00
7834;BME280;3962;42.696;23.354;2022-11-21T07:31:56;94147.75;;;6.50;100.00
7834;BME280;3962;42.696;23.354;2022-11-21T07:34:23;94147.59;;;6.34;100.00
7834;BME280;3962;42.696;23.354;2022-11-21T07:36:50;94149.72;;;6.31;100.00
7834;BME280;3962;42.696;23.354;2022-11-21T07:39:17;94155.34;;;6.18;100.00
7834;BME280;3962;42.696;23.354;2022-11-21T07:41:44;94176.72;;;6.25;100.00
7834;BME280;3962;42.696;23.354;2022-11-21T07:44:10;94171.69;;;6.31;100.00
7834;BME280;3962;42.696;23.354;2022-11-21T07:46:37;94190.09;;;6.23;100.00
7834;BME280;3962;42.696;23.354;2022-11-21T07:49:05;94190.00;;;6.33;100.00
7834;BME280;3962;42.696;23.354;2022-11-21T07:51:32;94202.09;;;6.35;100.00
7834;BME280;3962;42.696;23.354;2022-11-21T07:53:59;94205.56;;;6.36;100.00
7834;BME280;3962;42.696;23.354;2022-11-21T07:56:26;94201.91;;;6.19;100.00
7834;BME280;3962;42.696;23.354;2022-11-21T07:58:52;94191.44;;;6.27;100.00
7834;BME280;3962;42.696;23.354;2022-11-21T08:01:19;94220.13;;;6.40;100.00
7834;BME280;3962;42.696;23.354;2022-11-21T08:03:46;94217.84;;;6.27;100.00
7834;BME280;3962;42.696;23.354;2022-11-21T08:06:14;94235.22;;;6.30;100.00
7834;BME280;3962;42.696;23.354;2022-11-21T08:08:41;94238.59;;;6.22;100.00
7834;BME280;3962;42.696;23.354;2022-11-21T08:11:08;94234.91;;;6.33;100.00
7834;BME280;3962;42.696;23.354;2022-11-21T08:13:35;94245.06;;;6.01;99.70
7834;BME280;3962;42.696;23.354;2022-11-21T08:16:02;94249.91;;;6.05;99.84
7834;BME280;3962;42.696;23.354;2022-11-21T08:18:29;94247.50;;;5.85;99.13
7834;BME280;3962;42.696;23.354;2022-11-21T08:20:56;94256.94;;;5.87;98.37
7834;BME280;3962;42.696;23.354;2022-11-21T08:23:27;94256.06;;;5.96;99.77
7834;BME280;3962;42.696;23.354;2022-11-21T08:25:53;94264.00;;;5.96;100.00
7834;BME280;3962;42.696;23.354;2022-11-21T08:28:20;94252.41;;;6.07;99.42
7834;BME280;3962;42.696;23.354;2022-11-21T08:30:47;94266.81;;;5.95;98.99
7834;BME280;3962;42.696;23.354;2022-11-21T08:33:14;94250.53;;;5.99;99.38
7834;BME280;3962;42.696;23.354;2022-11-21T08:35:41;94260.25;;;5.89;98.00
7834;BME280;3962;42.696;23.354;2022-11-21T08:38:08;94242.13;;;5.67;98.57
7834;BME280;3962;42.696;23.354;2022-11-21T08:40:36;94269.72;;;5.92;98.70
7834;BME280;3962;42.696;23.354;2022-11-21T08:43:05;94265.09;;;5.94;98.77
7834;BME280;3962;42.696;23.354;2022-11-21T08:45:32;94258.16;;;5.93;98.09
7834;BME280;3962;42.696;23.354;2022-11-21T08:47:59;94257.16;;;6.03;97.44
7834;BME280;3962;42.696;23.354;2022-11-21T08:50:27;94267.63;;;5.95;97.02
7834;BME280;3962;42.696;23.354;2022-11-21T08:52:58;94271.44;;;6.10;97.43
7834;BME280;3962;42.696;23.354;2022-11-21T08:55:25;94263.53;;;6.10;96.40
7834;BME280;3962;42.696;23.354;2022-11-21T08:57:54;94267.00;;;6.11;96.55
7834;BME280;3962;42.696;23.354;2022-11-21T09:00:33;94285.53;;;6.01;96.08
7834;BME280;3962;42.696;23.354;2022-11-21T09:03:03;94283.53;;;6.13;95.52
7834;BME280;3962;42.696;23.354;2022-11-21T09:05:30;94287.25;;;6.20;94.73
7834;BME280;3962;42.696;23.354;2022-11-21T09:07:57;94291.38;;;6.32;93.74
7834;BME280;3962;42.696;23.354;2022-11-21T09:10:24;94296.81;;;6.30;94.21
7834;BME280;3962;42.696;23.354;2022-11-21T09:12:51;94294.97;;;6.40;95.06
7834;BME280;3962;42.696;23.354;2022-11-21T09:15:19;94299.66;;;6.46;95.10
7834;BME280;3962;42.696;23.354;2022-11-21T09:18:04;94301.75;;;6.43;95.18
7834;BME280;3962;42.696;23.354;2022-11-21T09:20:36;94281.34;;;6.35;94.15
7834;BME280;3962;42.696;23.354;2022-11-21T09:23:04;94295.34;;;6.45;95.13
7834;BME280;3962;42.696;23.354;2022-11-21T09:25:31;94274.19;;;6.18;94.53
7834;BME280;3962;42.696;23.354;2022-11-21T09:27:58;94277.19;;;6.33;95.18
7834;BME280;3962;42.696;23.354;2022-11-21T09:30:27;94283.50;;;6.22;96.26
7834;BME280;3962;42.696;23.354;2022-11-21T09:32:58;94287.38;;;6.28;96.64
7834;BME280;3962;42.696;23.354;2022-11-21T09:35:26;94289.16;;;6.27;98.57
7834;BME280;3962;42.696;23.354;2022-11-21T09:37:52;94287.53;;;6.17;99.16
7834;BME280;3962;42.696;23.354;2022-11-21T09:40:20;94284.63;;;6.20;98.89
7834;BME280;3962;42.696;23.354;2022-11-21T09:43:01;94290.94;;;6.36;98.65
7834;BME280;3962;42.696;23.354;2022-11-21T09:45:36;94291.13;;;6.25;98.96
7834;BME280;3962;42.696;23.354;2022-11-21T09:48:11;94277.81;;;6.44;99.39
7834;BME280;3962;42.696;23.354;2022-11-21T09:50:40;94262.06;;;6.52;98.43
7834;BME280;3962;42.696;23.354;2022-11-21T09:53:12;94263.13;;;6.59;96.79
7834;BME280;3962;42.696;23.354;2022-11-21T09:55:43;94265.31;;;6.64;97.72
7834;BME280;3962;42.696;23.354;2022-11-21T09:58:19;94275.84;;;6.73;97.55
7834;BME280;3962;42.696;23.354;2022-11-21T10:00:51;94282.72;;;6.66;97.81
7834;BME280;3962;42.696;23.354;2022-11-21T10:03:21;94272.03;;;6.58;97.61
7834;BME280;3962;42.696;23.354;2022-11-21T10:05:52;94281.69;;;6.23;97.14
7834;BME280;3962;42.696;23.354;2022-11-21T10:08:27;94284.53;;;6.12;98.64
7834;BME280;3962;42.696;23.354;2022-11-21T10:11:00;94300.41;;;5.93;98.69
7834;BME280;3962;42.696;23.354;2022-11-21T10:13:44;94313.06;;;5.89;99.87
7834;BME280;3962;42.696;23.354;2022-11-21T10:16:19;94304.31;;;5.98;100.00
7834;BME280;3962;42.696;23.354;2022-11-21T10:19:04;94313.06;;;5.70;99.65
7834;BME280;3962;42.696;23.354;2022-11-21T10:21:46;94303.88;;;5.74;100.00
7834;BME280;3962;42.696;23.354;2022-11-21T10:24:33;94309.34;;;5.73;100.00
7834;BME280;3962;42.696;23.354;2022-11-21T10:27:09;94304.50;;;5.59;100.00
7834;BME280;3962;42.696;23.354;2022-11-21T10:29:40;94312.66;;;5.75;100.00
7834;BME280;3962;42.696;23.354;2022-11-21T10:32:18;94318.19;;;5.91;98.78
7834;BME280;3962;42.696;23.354;2022-11-21T10:34:48;94307.63;;;6.00;97.68
7834;BME280;3962;42.696;23.354;2022-11-21T10:37:26;94317.63;;;6.06;98.45
7834;BME280;3962;42.696;23.354;2022-11-21T10:39:55;94323.25;;;6.21;98.16
7834;BME280;3962;42.696;23.354;2022-11-21T10:42:33;94312.44;;;6.14;97.32
7834;BME280;3962;42.696;23.354;2022-11-21T10:45:02;94312.59;;;6.40;97.61
7834;BME280;3962;42.696;23.354;2022-11-21T10:47:43;94321.16;;;6.24;97.42
7834;BME280;3962;42.696;23.354;2022-11-21T10:50:21;94318.84;;;6.48;98.73
7834;BME280;3962;42.696;23.354;2022-11-21T10:53:02;94320.53;;;6.40;96.64
7834;BME280;3962;42.696;23.354;2022-11-21T10:55:57;94308.50;;;6.28;97.21
7834;BME280;3962;42.696;23.354;2022-11-21T10:58:35;94300.16;;;6.23;97.30
7834;BME280;3962;42.696;23.354;2022-11-21T11:01:02;94294.06;;;6.22;96.99
7834;BME280;3962;42.696;23.354;2022-11-21T11:03:31;94298.91;;;6.27;97.85
7834;BME280;3962;42.696;23.354;2022-11-21T11:05:58;94299.84;;;6.35;98.15
7834;BME280;3962;42.696;23.354;2022-11-21T11:08:25;94306.63;;;6.38;98.37
7834;BME280;3962;42.696;23.354;2022-11-21T11:11:01;94308.06;;;6.32;97.12
7834;BME280;3962;42.696;23.354;2022-11-21T11:13:29;94316.53;;;6.36;98.36
7834;BME280;3962;42.696;23.354;2022-11-21T11:16:05;94310.25;;;6.37;96.90
7834;BME280;3962;42.696;23.354;2022-11-21T11:18:36;94321.63;;;6.47;97.68
7834;BME280;3962;42.696;23.354;2022-11-21T11:21:14;94316.09;;;6.40;95.84
7834;BME280;3962;42.696;23.354;2022-11-21T11:23:42;94309.84;;;6.32;96.13
7834;BME280;3962;42.696;23.354;2022-11-21T11:26:30;94307.34;;;6.67;96.60
7834;BME280;3962;42.696;23.354;2022-11-21T11:29:07;94298.44;;;6.68;94.82
7834;BME280;3962;42.696;23.354;2022-11-21T11:31:39;94315.94;;;6.69;94.70
7834;BME280;3962;42.696;23.354;2022-11-21T11:34:11;94304.03;;;6.82;93.18
7834;BME280;3962;42.696;23.354;2022-11-21T11:36:46;94296.28;;;6.81;93.53
7834;BME280;3962;42.696;23.354;2022-11-21T11:39:26;94292.09;;;6.78;92.88
7834;BME280;3962;42.696;23.354;2022-11-21T11:42:13;94288.72;;;6.86;92.37
7834;BME280;3962;42.696;23.354;2022-11-21T11:45:13;94283.56;;;6.84;92.02
7834;BME280;3962;42.696;23.354;2022-11-21T11:47:59;94289.56;;;7.03;90.93
7834;BME280;3962;42.696;23.354;2022-11-21T11:50:31;94294.09;;;7.11;90.38
7834;BME280;3962;42.696;23.354;2022-11-21T11:53:04;94293.50;;;7.00;89.61
7834;BME280;3962;42.696;23.354;2022-11-21T11:55:36;94297.56;;;6.94;90.42
7834;BME280;3962;42.696;23.354;2022-11-21T11:58:12;94284.84;;;6.80;89.85
7834;BME280;3962;42.696;23.354;2022-11-21T12:00:45;94290.16;;;6.80;89.53
7834;BME280;3962;42.696;23.354;2022-11-21T12:03:17;94292.75;;;6.63;89.53
7834;BME280;3962;42.696;23.354;2022-11-21T12:05:58;94300.88;;;6.96;90.15
7834;BME280;3962;42.696;23.354;2022-11-21T12:08:36;94296.13;;;7.00;90.39
7834;BME280;3962;42.696;23.354;2022-11-21T12:11:13;94288.84;;;6.84;88.50
7834;BME280;3962;42.696;23.354;2022-11-21T12:14:07;94297.31;;;6.88;88.10
7834;BME280;3962;42.696;23.354;2022-11-21T12:16:38;94310.34;;;6.72;87.97
7834;BME280;3962;42.696;23.354;2022-11-21T12:19:11;94300.50;;;6.74;87.76
7834;BME280;3962;42.696;23.354;2022-11-21T12:21:42;94312.22;;;6.62;88.10
7834;BME280;3962;42.696;23.354;2022-11-21T12:24:09;94313.34;;;6.59;88.27
7834;BME280;3962;42.696;23.354;2022-11-21T12:26:44;94313.84;;;6.45;89.43
7834;BME280;3962;42.696;23.354;2022-11-21T12:29:23;94314.44;;;6.66;89.03
7834;BME280;3962;42.696;23.354;2022-11-21T12:32:04;94319.84;;;6.65;88.08
7834;BME280;3962;42.696;23.354;2022-11-21T12:34:42;94320.47;;;6.59;88.51
7834;BME280;3962;42.696;23.354;2022-11-21T12:37:23;94320.34;;;6.78;89.40
7834;BME280;3962;42.696;23.354;2022-11-21T12:40:04;94320.94;;;6.72;87.96
7834;BME280;3962;42.696;23.354;2022-11-21T12:42:39;94330.41;;;6.65;87.93
7834;BME280;3962;42.696;23.354;2022-11-21T12:45:30;94344.19;;;6.68;87.69
7834;BME280;3962;42.696;23.354;2022-11-21T12:48:12;94331.84;;;6.59;87.88
7834;BME280;3962;42.696;23.354;2022-11-21T12:51:11;94336.16;;;6.60;87.66
7834;BME280;3962;42.696;23.354;2022-11-21T12:54:06;94318.34;;;6.62;88.33
7834;BME280;3962;42.696;23.354;2022-11-21T12:57:07;94333.59;;;6.68;88.46
7834;BME280;3962;42.696;23.354;2022-11-21T12:59:46;94335.22;;;6.79;87.42
7834;BME280;3962;42.696;23.354;2022-11-21T13:02:23;94342.72;;;6.56;86.84
7834;BME280;3962;42.696;23.354;2022-11-21T13:04:55;94335.09;;;6.53;89.34
7834;BME280;3962;42.696;23.354;2022-11-21T13:07:25;94331.47;;;6.54;88.86
7834;BME280;3962;42.696;23.354;2022-11-21T13:09:56;94335.28;;;6.33;87.87
7834;BME280;3962;42.696;23.354;2022-11-21T13:12:31;94322.97;;;6.24;88.90
7834;BME280;3962;42.696;23.354;2022-11-21T13:15:04;94320.91;;;6.18;89.50
7834;BME280;3962;42.696;23.354;2022-11-21T13:17:42;94332.47;;;6.07;87.67
7834;BME280;3962;42.696;23.354;2022-11-21T13:20:19;94329.41;;;6.12;88.54
7834;BME280;3962;42.696;23.354;2022-11-21T13:22:53;94335.03;;;6.36;89.05
7834;BME280;3962;42.696;23.354;2022-11-21T13:25:52;94335.91;;;6.27;87.70
7834;BME280;3962;42.696;23.354;2022-11-21T13:28:33;94333.47;;;6.06;86.54
7834;BME280;3962;42.696;23.354;2022-11-21T13:31:02;94327.31;;;6.15;87.88
7834;BME280;3962;42.696;23.354;2022-11-21T13:33:51;94341.31;;;6.25;88.76
7834;BME280;3962;42.696;23.354;2022-11-21T13:36:40;94339.63;;;6.34;87.95
7834;BME280;3962;42.696;23.354;2022-11-21T13:39:25;94345.56;;;6.45;86.59
7834;BME280;3962;42.696;23.354;2022-11-21T13:51:19;94346.88;;;6.59;87.20
7834;BME280;3962;42.696;23.354;2022-11-21T13:54:08;94330.38;;;6.47;87.81
7834;BME280;3962;42.696;23.354;2022-11-21T13:56:56;94356.28;;;6.34;88.46